Eiho Maru No.5 — JG5332 — position and weather

sailwx.info

Track history (hours):
 
Tides and Currents Weather Stations Pressure Air Temp Water Temp Dewpoint Dewpoint Depression Visibility Wind Speed Wind Dir Waves Ship Positions

Eiho Maru No.5

Last reported at 2017-Nov-24 05:30 UTC. Time now 2017-Nov-24 05:51 UTC.
Position N 35°32' E 139°59'.

Length 90 m; draft 4.5 m.

Type: Ship (hazmat cat A). MMSI: 431000692.

Date/timePositionNaut miles runAvg speedWind from/ knotsBaromVisibWave heightAir tempDewpointWater temp
2017-Nov-24 05:30N 35°32' E 139°59'510.8
2017-Nov-24 05:00N 35°34' E 139°54'4 8.2
2017-Nov-24 04:30N 35°37' E 139°50'0 0.0
2017-Nov-24 04:00N 35°37' E 139°50'0 0.0
2017-Nov-24 03:30N 35°37' E 139°50'0 0.0
2017-Nov-24 02:57N 35°37' E 139°50'0 0.0
2017-Nov-24 02:30N 35°37' E 139°50'0 0.1
2017-Nov-24 02:00N 35°37' E 139°50'3 5.5
2017-Nov-24 01:30N 35°35' E 139°52'510.1
2017-Nov-24 01:00N 35°32' E 139°57'5 1.5
2017-Nov-23 21:58N 35°30' E 140°02'3 6.3
2017-Nov-23 21:30N 35°31' E 139°59'5 9.9
2017-Nov-23 20:59N 35°34' E 139°54'2 2.9
2017-Nov-23 20:16N 35°35' E 139°52'0 0.1
2017-Nov-23 19:58N 35°35' E 139°52'0 0.1
2017-Nov-23 19:28N 35°35' E 139°52'0 0.0
2017-Nov-23 18:58N 35°35' E 139°52'0 0.0
2017-Nov-23 18:28N 35°35' E 139°52'0 0.0
2017-Nov-23 17:58N 35°35' E 139°52'0 0.0
2017-Nov-23 17:28N 35°35' E 139°52'0 0.0
2017-Nov-23 16:58N 35°35' E 139°52'0 0.0
2017-Nov-23 16:28N 35°35' E 139°52'0 0.0
2017-Nov-23 15:58N 35°35' E 139°52'0 0.0
2017-Nov-23 15:28N 35°35' E 139°52'0 0.0
2017-Nov-23 14:58N 35°35' E 139°52'0 0.0
2017-Nov-23 14:25N 35°35' E 139°52'0 0.0
2017-Nov-23 13:58N 35°35' E 139°52'0 0.0
2017-Nov-23 13:28N 35°35' E 139°52'0 0.0
2017-Nov-23 12:58N 35°35' E 139°52'0 0.0
2017-Nov-23 12:25N 35°35' E 139°52'0 0.0
2017-Nov-23 11:58N 35°35' E 139°52'0 0.0
2017-Nov-23 11:28N 35°35' E 139°52'0 0.0
2017-Nov-23 10:57N 35°35' E 139°52'0 0.0
2017-Nov-23 10:30N 35°35' E 139°52'0 0.0
2017-Nov-23 09:51N 35°35' E 139°52'0 0.1
2017-Nov-23 09:30N 35°35' E 139°52'0 0.0
2017-Nov-23 09:00N 35°35' E 139°52'0 0.1
2017-Nov-23 08:30N 35°35' E 139°52'0 0.0
2017-Nov-23 08:00N 35°35' E 139°52'0 0.0
2017-Nov-23 07:30N 35°35' E 139°52'0 0.0
2017-Nov-23 07:00N 35°35' E 139°52'0 0.1
2017-Nov-23 06:29N 35°35' E 139°52'0 0.0
2017-Nov-23 05:59N 35°35' E 139°52'0 0.0
2017-Nov-23 05:29N 35°35' E 139°52'0 0.0
2017-Nov-23 04:59N 35°35' E 139°52'0 0.1
2017-Nov-23 04:26N 35°35' E 139°52'2 5.3
2017-Nov-23 03:58N 35°37' E 139°50'0 0.0
2017-Nov-23 03:28N 35°37' E 139°50'0 0.0
2017-Nov-23 02:58N 35°37' E 139°50'0 0.0
2017-Nov-23 02:28N 35°37' E 139°50'0 0.0
2017-Nov-23 01:58N 35°37' E 139°50'2 3.9
2017-Nov-23 01:30N 35°36' E 139°51'3 6.6
2017-Nov-23 01:00N 35°34' E 139°54'5 9.9
2017-Nov-23 00:30N 35°31' E 139°59'2 0.7
2017-Nov-22 21:50N 35°30' E 140°01'2 5.4
2017-Nov-22 21:30N 35°31' E 139°60'5 9.7
2017-Nov-22 21:00N 35°34' E 139°55'2 4.2
2017-Nov-22 20:29N 35°36' E 139°53'0 0.0
2017-Nov-22 20:00N 35°36' E 139°53'0 0.0
2017-Nov-22 19:29N 35°36' E 139°53'  
2017-Nov-20 00:25N 35°37' E 139°50'0 0.2
2017-Nov-20 00:01N 35°37' E 139°50'2 4.5
2017-Nov-19 23:30N 35°36' E 139°52'0 0.2
2017-Nov-19 22:57N 35°36' E 139°52'0 0.0
2017-Nov-19 22:12N 35°36' E 139°52'0 0.0
2017-Nov-19 22:00N 35°36' E 139°52'0 0.0
2017-Nov-19 20:36N 35°36' E 139°52'0 0.1
2017-Nov-19 20:30N 35°36' E 139°52'0 0.0
2017-Nov-19 19:57N 35°36' E 139°52'0 0.0
2017-Nov-19 19:20N 35°36' E 139°52'0 0.0
2017-Nov-19 18:59N 35°36' E 139°52'0 0.0
2017-Nov-19 18:30N 35°36' E 139°52'0 0.0
2017-Nov-19 17:54N 35°36' E 139°52'0 0.0
2017-Nov-19 15:57N 35°36' E 139°52'0 0.0
2017-Nov-19 15:30N 35°36' E 139°52'0 0.0
2017-Nov-19 13:42N 35°36' E 139°52'0 0.0
2017-Nov-19 11:09N 35°36' E 139°52'0 0.1
2017-Nov-19 10:57N 35°36' E 139°52'0 0.1
2017-Nov-19 10:18N 35°36' E 139°52'0 0.0
2017-Nov-19 10:00N 35°36' E 139°52'0 0.0
2017-Nov-19 09:30N 35°36' E 139°52'0 0.0
2017-Nov-19 09:00N 35°36' E 139°52'0 0.0
2017-Nov-19 08:28N 35°36' E 139°52'0 0.2
2017-Nov-19 08:01N 35°36' E 139°52'5 9.7
2017-Nov-19 07:30N 35°33' E 139°57'5 1.7
2017-Nov-19 04:26N 35°30' E 140°02'2 4.3
2017-Nov-19 03:58N 35°31' E 140°00'1 2.6
2017-Nov-19 03:30N 35°32' E 139°59'511.0
2017-Nov-19 03:00N 35°36' E 139°55'1 2.1
2017-Nov-19 02:25N 35°36' E 139°53'0 0.0
2017-Nov-19 01:58N 35°36' E 139°53'0 0.0
2017-Nov-19 01:19N 35°36' E 139°53'0 0.0
2017-Nov-19 00:52N 35°36' E 139°53'0 0.1
2017-Nov-19 00:29N 35°36' E 139°53'0 0.0
2017-Nov-19 00:00N 35°36' E 139°53'0 0.0
2017-Nov-18 23:30N 35°36' E 139°53'0 0.0
2017-Nov-18 08:40N 35°36' E 139°53'211.1
2017-Nov-18 08:28N 35°36' E 139°50'1 0.6
2017-Nov-18 06:13N 35°37' E 139°50'0 0.1
2017-Nov-18 05:38N 35°37' E 139°50'0 0.5
2017-Nov-18 05:30N 35°37' E 139°50'4 8.3
2017-Nov-18 05:00N 35°34' E 139°53'5 9.7
2017-Nov-18 04:28N 35°31' E 139°59'0 0.1
2017-Nov-18 01:07N 35°32' E 139°59'611.1
2017-Nov-18 00:37N 35°35' E 139°53'111.1
2017-Nov-18 00:30N 35°35' E 139°52'3 1.0
2017-Nov-17 21:59N 35°37' E 139°50'2 4.7
2017-Nov-17 21:30N 35°35' E 139°51'1 1.1
2017-Nov-17 20:57N 35°35' E 139°52'0 0.0
2017-Nov-17 20:27N 35°35' E 139°52'0 0.0
2017-Nov-17 20:00N 35°35' E 139°52'0 0.0
2017-Nov-17 19:15N 35°35' E 139°52'0 0.0
2017-Nov-17 18:57N 35°35' E 139°52'0 0.0
2017-Nov-17 17:33N 35°35' E 139°52'0 0.0
2017-Nov-17 14:28N 35°35' E 139°52'0 0.0
2017-Nov-17 11:53N 35°35' E 139°52'0 0.0
2017-Nov-17 07:58N 35°35' E 139°52'0 0.1
2017-Nov-17 07:30N 35°35' E 139°52'0 0.1
2017-Nov-17 06:36N 35°35' E 139°52'1 8.3
2017-Nov-17 06:31N 35°35' E 139°53'5 1.0
2017-Nov-17 01:18N 35°32' E 139°58'410.9
2017-Nov-17 00:54N 35°35' E 139°54'410.4
2017-Nov-17 00:31N 35°37' E 139°50'0 0.2
2017-Nov-16 22:21N 35°37' E 139°50'2 3.5
2017-Nov-16 21:52N 35°36' E 139°50'1 0.3
2017-Nov-16 17:10N 35°35' E 139°52'0 0.0
2017-Nov-16 05:55N 35°35' E 139°52'9 2.4
2017-Nov-16 02:04N 35°30' E 140°01'2 4.6
2017-Nov-16 01:38N 35°32' E 139°60'0 1.1
2017-Nov-16 01:23N 35°31' E 139°60'1 2.9
2017-Nov-16 00:57N 35°32' E 139°58'511.0
2017-Nov-16 00:30N 35°35' E 139°53'4 1.5
2017-Nov-15 22:04N 35°37' E 139°50'0 0.4
2017-Nov-15 22:00N 35°37' E 139°50'3 5.7
2017-Nov-15 21:30N 35°35' E 139°52'0 0.2
2017-Nov-15 20:50N 35°35' E 139°52'0 0.0
2017-Nov-15 20:29N 35°35' E 139°52'0 0.0
2017-Nov-15 19:59N 35°35' E 139°52'0 0.0
2017-Nov-15 19:29N 35°35' E 139°52'0 0.0
2017-Nov-15 18:59N 35°35' E 139°52'0 0.0
2017-Nov-15 18:23N 35°35' E 139°52'0 0.0
2017-Nov-15 17:59N 35°35' E 139°52'0 0.0
2017-Nov-15 17:26N 35°35' E 139°52'0 0.0
2017-Nov-15 16:53N 35°35' E 139°52'0 0.0
2017-Nov-15 16:23N 35°35' E 139°52'0 0.0
2017-Nov-15 15:59N 35°35' E 139°52'0 0.0
2017-Nov-15 15:23N 35°35' E 139°52'0 0.0
2017-Nov-15 14:50N 35°35' E 139°52'0 0.0
2017-Nov-15 14:29N 35°35' E 139°52'0 0.0
2017-Nov-15 13:23N 35°35' E 139°52'0 0.0
2017-Nov-15 12:11N 35°35' E 139°52'0 0.0
2017-Nov-15 11:59N 35°35' E 139°52'0 0.3
2017-Nov-15 11:09N 35°35' E 139°52'410.7
2017-Nov-15 10:48N 35°33' E 139°56'2 0.4
2017-Nov-15 05:14N 35°35' E 139°54'210.2
2017-Nov-15 05:00N 35°36' E 139°52'2 0.8
2017-Nov-15 02:11N 35°37' E 139°50'2 4.7
2017-Nov-15 01:50N 35°36' E 139°50'3 8.5
2017-Nov-15 01:29N 35°34' E 139°54'5 9.9
2017-Nov-15 00:58N 35°32' E 139°59'0 0.1
2017-Nov-14 21:31N 35°31' E 139°59'011.6
2017-Nov-14 21:29N 35°31' E 139°59'510.2
2017-Nov-14 20:59N 35°34' E 139°54'2 0.4
2017-Nov-14 16:43N 35°35' E 139°52'0 0.0
2017-Nov-14 13:55N 35°35' E 139°52'  
Track history (hours):
 
Tides and Currents Weather Stations Pressure Air Temp Water Temp Dewpoint Dewpoint Depression Visibility Wind Speed Wind Dir Waves Ship Positions

Eiho Maru No.5

Last reported at 2017-Nov-24 05:30 UTC. Time now 2017-Nov-24 05:51 UTC.
Position N 35°32' E 139°59'.

Length 90 m; draft 4.5 m.

Type: Ship (hazmat cat A). MMSI: 431000692.

Date/timePositionNaut miles runAvg speedWind from/ knotsBaromVisibWave heightAir tempDewpointWater temp
2017-Nov-24 05:30N 35°32' E 139°59'510.8
2017-Nov-24 05:00N 35°34' E 139°54'4 8.2
2017-Nov-24 04:30N 35°37' E 139°50'0 0.0
2017-Nov-24 04:00N 35°37' E 139°50'0 0.0
2017-Nov-24 03:30N 35°37' E 139°50'0 0.0
2017-Nov-24 02:57N 35°37' E 139°50'0 0.0
2017-Nov-24 02:30N 35°37' E 139°50'0 0.1
2017-Nov-24 02:00N 35°37' E 139°50'3 5.5
2017-Nov-24 01:30N 35°35' E 139°52'510.1
2017-Nov-24 01:00N 35°32' E 139°57'5 1.5
2017-Nov-23 21:58N 35°30' E 140°02'3 6.3
2017-Nov-23 21:30N 35°31' E 139°59'5 9.9
2017-Nov-23 20:59N 35°34' E 139°54'2 2.9
2017-Nov-23 20:16N 35°35' E 139°52'0 0.1
2017-Nov-23 19:58N 35°35' E 139°52'0 0.1
2017-Nov-23 19:28N 35°35' E 139°52'0 0.0
2017-Nov-23 18:58N 35°35' E 139°52'0 0.0
2017-Nov-23 18:28N 35°35' E 139°52'0 0.0
2017-Nov-23 17:58N 35°35' E 139°52'0 0.0
2017-Nov-23 17:28N 35°35' E 139°52'0 0.0
2017-Nov-23 16:58N 35°35' E 139°52'0 0.0
2017-Nov-23 16:28N 35°35' E 139°52'0 0.0
2017-Nov-23 15:58N 35°35' E 139°52'0 0.0
2017-Nov-23 15:28N 35°35' E 139°52'0 0.0
2017-Nov-23 14:58N 35°35' E 139°52'0 0.0
2017-Nov-23 14:25N 35°35' E 139°52'0 0.0
2017-Nov-23 13:58N 35°35' E 139°52'0 0.0
2017-Nov-23 13:28N 35°35' E 139°52'0 0.0
2017-Nov-23 12:58N 35°35' E 139°52'0 0.0
2017-Nov-23 12:25N 35°35' E 139°52'0 0.0
2017-Nov-23 11:58N 35°35' E 139°52'0 0.0
2017-Nov-23 11:28N 35°35' E 139°52'0 0.0
2017-Nov-23 10:57N 35°35' E 139°52'0 0.0
2017-Nov-23 10:30N 35°35' E 139°52'0 0.0
2017-Nov-23 09:51N 35°35' E 139°52'0 0.1
2017-Nov-23 09:30N 35°35' E 139°52'0 0.0
2017-Nov-23 09:00N 35°35' E 139°52'0 0.1
2017-Nov-23 08:30N 35°35' E 139°52'0 0.0
2017-Nov-23 08:00N 35°35' E 139°52'0 0.0
2017-Nov-23 07:30N 35°35' E 139°52'0 0.0
2017-Nov-23 07:00N 35°35' E 139°52'0 0.1
2017-Nov-23 06:29N 35°35' E 139°52'0 0.0
2017-Nov-23 05:59N 35°35' E 139°52'0 0.0
2017-Nov-23 05:29N 35°35' E 139°52'0 0.0
2017-Nov-23 04:59N 35°35' E 139°52'0 0.1
2017-Nov-23 04:26N 35°35' E 139°52'2 5.3
2017-Nov-23 03:58N 35°37' E 139°50'0 0.0
2017-Nov-23 03:28N 35°37' E 139°50'0 0.0
2017-Nov-23 02:58N 35°37' E 139°50'0 0.0
2017-Nov-23 02:28N 35°37' E 139°50'0 0.0
2017-Nov-23 01:58N 35°37' E 139°50'2 3.9
2017-Nov-23 01:30N 35°36' E 139°51'3 6.6
2017-Nov-23 01:00N 35°34' E 139°54'5 9.9
2017-Nov-23 00:30N 35°31' E 139°59'2 0.7
2017-Nov-22 21:50N 35°30' E 140°01'2 5.4
2017-Nov-22 21:30N 35°31' E 139°60'5 9.7
2017-Nov-22 21:00N 35°34' E 139°55'2 4.2
2017-Nov-22 20:29N 35°36' E 139°53'0 0.0
2017-Nov-22 20:00N 35°36' E 139°53'0 0.0
2017-Nov-22 19:29N 35°36' E 139°53'  
2017-Nov-20 00:25N 35°37' E 139°50'0 0.2
2017-Nov-20 00:01N 35°37' E 139°50'2 4.5
2017-Nov-19 23:30N 35°36' E 139°52'0 0.2
2017-Nov-19 22:57N 35°36' E 139°52'0 0.0
2017-Nov-19 22:12N 35°36' E 139°52'0 0.0
2017-Nov-19 22:00N 35°36' E 139°52'0 0.0
2017-Nov-19 20:36N 35°36' E 139°52'0 0.1
2017-Nov-19 20:30N 35°36' E 139°52'0 0.0
2017-Nov-19 19:57N 35°36' E 139°52'0 0.0
2017-Nov-19 19:20N 35°36' E 139°52'0 0.0
2017-Nov-19 18:59N 35°36' E 139°52'0 0.0
2017-Nov-19 18:30N 35°36' E 139°52'0 0.0
2017-Nov-19 17:54N 35°36' E 139°52'0 0.0
2017-Nov-19 15:57N 35°36' E 139°52'0 0.0
2017-Nov-19 15:30N 35°36' E 139°52'0 0.0
2017-Nov-19 13:42N 35°36' E 139°52'0 0.0
2017-Nov-19 11:09N 35°36' E 139°52'0 0.1
2017-Nov-19 10:57N 35°36' E 139°52'0 0.1
2017-Nov-19 10:18N 35°36' E 139°52'0 0.0
2017-Nov-19 10:00N 35°36' E 139°52'0 0.0
2017-Nov-19 09:30N 35°36' E 139°52'0 0.0
2017-Nov-19 09:00N 35°36' E 139°52'0 0.0
2017-Nov-19 08:28N 35°36' E 139°52'0 0.2
2017-Nov-19 08:01N 35°36' E 139°52'5 9.7
2017-Nov-19 07:30N 35°33' E 139°57'5 1.7
2017-Nov-19 04:26N 35°30' E 140°02'2 4.3
2017-Nov-19 03:58N 35°31' E 140°00'1 2.6
2017-Nov-19 03:30N 35°32' E 139°59'511.0
2017-Nov-19 03:00N 35°36' E 139°55'1 2.1
2017-Nov-19 02:25N 35°36' E 139°53'0 0.0
2017-Nov-19 01:58N 35°36' E 139°53'0 0.0
2017-Nov-19 01:19N 35°36' E 139°53'0 0.0
2017-Nov-19 00:52N 35°36' E 139°53'0 0.1
2017-Nov-19 00:29N 35°36' E 139°53'0 0.0
2017-Nov-19 00:00N 35°36' E 139°53'0 0.0
2017-Nov-18 23:30N 35°36' E 139°53'0 0.0
2017-Nov-18 08:40N 35°36' E 139°53'211.1
2017-Nov-18 08:28N 35°36' E 139°50'1 0.6
2017-Nov-18 06:13N 35°37' E 139°50'0 0.1
2017-Nov-18 05:38N 35°37' E 139°50'0 0.5
2017-Nov-18 05:30N 35°37' E 139°50'4 8.3
2017-Nov-18 05:00N 35°34' E 139°53'5 9.7
2017-Nov-18 04:28N 35°31' E 139°59'0 0.1
2017-Nov-18 01:07N 35°32' E 139°59'611.1
2017-Nov-18 00:37N 35°35' E 139°53'111.1
2017-Nov-18 00:30N 35°35' E 139°52'3 1.0
2017-Nov-17 21:59N 35°37' E 139°50'2 4.7
2017-Nov-17 21:30N 35°35' E 139°51'1 1.1
2017-Nov-17 20:57N 35°35' E 139°52'0 0.0
2017-Nov-17 20:27N 35°35' E 139°52'0 0.0
2017-Nov-17 20:00N 35°35' E 139°52'0 0.0
2017-Nov-17 19:15N 35°35' E 139°52'0 0.0
2017-Nov-17 18:57N 35°35' E 139°52'0 0.0
2017-Nov-17 17:33N 35°35' E 139°52'0 0.0
2017-Nov-17 14:28N 35°35' E 139°52'0 0.0
2017-Nov-17 11:53N 35°35' E 139°52'0 0.0
2017-Nov-17 07:58N 35°35' E 139°52'0 0.1
2017-Nov-17 07:30N 35°35' E 139°52'0 0.1
2017-Nov-17 06:36N 35°35' E 139°52'1 8.3
2017-Nov-17 06:31N 35°35' E 139°53'5 1.0
2017-Nov-17 01:18N 35°32' E 139°58'410.9
2017-Nov-17 00:54N 35°35' E 139°54'410.4
2017-Nov-17 00:31N 35°37' E 139°50'0 0.2
2017-Nov-16 22:21N 35°37' E 139°50'2 3.5
2017-Nov-16 21:52N 35°36' E 139°50'1 0.3
2017-Nov-16 17:10N 35°35' E 139°52'0 0.0
2017-Nov-16 05:55N 35°35' E 139°52'9 2.4
2017-Nov-16 02:04N 35°30' E 140°01'2 4.6
2017-Nov-16 01:38N 35°32' E 139°60'0 1.1
2017-Nov-16 01:23N 35°31' E 139°60'1 2.9
2017-Nov-16 00:57N 35°32' E 139°58'511.0
2017-Nov-16 00:30N 35°35' E 139°53'4 1.5
2017-Nov-15 22:04N 35°37' E 139°50'0 0.4
2017-Nov-15 22:00N 35°37' E 139°50'3 5.7
2017-Nov-15 21:30N 35°35' E 139°52'0 0.2
2017-Nov-15 20:50N 35°35' E 139°52'0 0.0
2017-Nov-15 20:29N 35°35' E 139°52'0 0.0
2017-Nov-15 19:59N 35°35' E 139°52'0 0.0
2017-Nov-15 19:29N 35°35' E 139°52'0 0.0
2017-Nov-15 18:59N 35°35' E 139°52'0 0.0
2017-Nov-15 18:23N 35°35' E 139°52'0 0.0
2017-Nov-15 17:59N 35°35' E 139°52'0 0.0
2017-Nov-15 17:26N 35°35' E 139°52'0 0.0
2017-Nov-15 16:53N 35°35' E 139°52'0 0.0
2017-Nov-15 16:23N 35°35' E 139°52'0 0.0
2017-Nov-15 15:59N 35°35' E 139°52'0 0.0
2017-Nov-15 15:23N 35°35' E 139°52'0 0.0
2017-Nov-15 14:50N 35°35' E 139°52'0 0.0
2017-Nov-15 14:29N 35°35' E 139°52'0 0.0
2017-Nov-15 13:23N 35°35' E 139°52'0 0.0
2017-Nov-15 12:11N 35°35' E 139°52'0 0.0
2017-Nov-15 11:59N 35°35' E 139°52'0 0.3
2017-Nov-15 11:09N 35°35' E 139°52'410.7
2017-Nov-15 10:48N 35°33' E 139°56'2 0.4
2017-Nov-15 05:14N 35°35' E 139°54'210.2
2017-Nov-15 05:00N 35°36' E 139°52'2 0.8
2017-Nov-15 02:11N 35°37' E 139°50'2 4.7
2017-Nov-15 01:50N 35°36' E 139°50'3 8.5
2017-Nov-15 01:29N 35°34' E 139°54'5 9.9
2017-Nov-15 00:58N 35°32' E 139°59'0 0.1
2017-Nov-14 21:31N 35°31' E 139°59'011.6
2017-Nov-14 21:29N 35°31' E 139°59'510.2
2017-Nov-14 20:59N 35°34' E 139°54'2 0.4
2017-Nov-14 16:43N 35°35' E 139°52'0 0.0
2017-Nov-14 13:55N 35°35' E 139°52'  

Dump ship's entire track history